Time;durP1;ratioP1;P1;durP2;ratioP2;P2;SDS_P1;SDS_P2;PMS_P1;PMS_P2;Temp;Humidity;BMP_temperature;BMP_pressure;BME280_temperature;BME280_humidity;BME280_pressure;Samples;Min_cycle;Max_cycle;Signal;HPM_P1;HPM_P2
2022/03/09 00:00:03;;;;;;;30.17;15.88;;;;;;;;;;521643;28;1267;-79
2022/03/09 00:00:18;;;;;;;29.92;16.65;;;;;;;;;;521996;28;1388;-79
2022/03/09 00:00:34;;;;;;;29.77;17.17;;;;;;;;;;522038;28;1979;-80
2022/03/09 00:00:49;;;;;;;32.05;17.27;;;;;;;;;;522028;28;844;-79
2022/03/09 00:01:04;;;;;;;34.30;17.70;;;;;;;;;;521943;28;835;-79
2022/03/09 00:01:19;;;;;;;35.17;17.97;;;;;;;;;;522114;28;788;-79
2022/03/09 00:01:35;;;;;;;34.45;17.77;;;;;;;;;;523353;28;1370;-79
2022/03/09 00:01:51;;;;;;;31.98;17.58;;;;;;;;;;523278;28;783;-79
2022/03/09 00:02:06;;;;;;;33.13;17.77;;;;;;;;;;522536;28;1425;-80
2022/03/09 00:02:22;;;;;;;32.60;17.73;;;;;;;;;;522245;28;1547;-79
2022/03/09 00:02:37;;;;;;;31.05;17.42;;;;;;;;;;522261;28;1449;-79
2022/03/09 00:02:53;;;;;;;29.60;16.65;;;;;;;;;;523620;28;946;-79
2022/03/09 00:03:08;;;;;;;26.63;15.60;;;;;;;;;;523693;28;824;-80
2022/03/09 00:03:24;;;;;;;27.42;15.40;;;;;;;;;;524061;28;764;-79
2022/03/09 00:03:39;;;;;;;31.63;15.93;;;;;;;;;;523763;28;875;-79
2022/03/09 00:03:54;;;;;;;34.97;17.40;;;;;;;;;;523599;28;918;-80
2022/03/09 00:04:10;;;;;;;30.60;17.55;;;;;;;;;;523739;28;796;-79
2022/03/09 00:04:26;;;;;;;27.70;16.33;;;;;;;;;;523913;28;593;-79
2022/03/09 00:04:41;;;;;;;24.52;14.95;;;;;;;;;;523592;28;799;-80
2022/03/09 00:04:56;;;;;;;21.83;14.27;;;;;;;;;;524077;28;823;-80
2022/03/09 00:05:12;;;;;;;21.83;13.90;;;;;;;;;;524069;28;717;-79
2022/03/09 00:05:27;;;;;;;17.83;12.77;;;;;;;;;;523607;28;1152;-79
2022/03/09 00:05:42;;;;;;;17.05;12.25;;;;;;;;;;523608;28;847;-79
2022/03/09 00:05:58;;;;;;;16.60;11.97;;;;;;;;;;521195;28;1183;-79
2022/03/09 00:06:13;;;;;;;16.47;12.03;;;;;;;;;;519488;28;1156;-79
2022/03/09 00:06:28;;;;;;;19.95;12.65;;;;;;;;;;519521;28;1104;-79
2022/03/09 00:06:43;;;;;;;18.43;12.90;;;;;;;;;;517607;28;1442;-80
2022/03/09 00:06:59;;;;;;;14.80;12.50;;;;;;;;;;517740;28;935;-79
2022/03/09 00:07:14;;;;;;;15.45;11.90;;;;;;;;;;518012;28;792;-79
2022/03/09 00:07:29;;;;;;;15.10;11.70;;;;;;;;;;519750;28;946;-79
2022/03/09 00:07:45;;;;;;;14.37;11.83;;;;;;;;;;522034;28;1291;-79
2022/03/09 00:08:00;;;;;;;15.25;12.23;;;;;;;;;;522776;28;1091;-79
2022/03/09 00:08:15;;;;;;;15.80;12.60;;;;;;;;;;524065;28;903;-79
2022/03/09 00:08:31;;;;;;;17.40;13.10;;;;;;;;;;521893;28;1045;-79
2022/03/09 00:08:46;;;;;;;17.65;13.20;;;;;;;;;;522102;28;927;-80
2022/03/09 00:09:02;;;;;;;17.40;13.17;;;;;;;;;;522063;28;721;-79
2022/03/09 00:09:17;;;;;;;17.58;13.10;;;;;;;;;;519718;28;1612;-80
2022/03/09 00:09:34;;;;;;;16.27;12.70;;;;;;;;;;519652;28;1336;-79
2022/03/09 00:09:49;;;;;;;16.13;12.43;;;;;;;;;;519752;28;836;-79
2022/03/09 00:10:05;;;;;;;16.77;12.77;;;;;;;;;;519544;28;791;-79
2022/03/09 00:10:21;;;;;;;17.33;13.02;;;;;;;;;;518347;28;1367;-79
2022/03/09 00:10:36;;;;;;;18.15;13.38;;;;;;;;;;522775;28;709;-79
2022/03/09 00:10:51;;;;;;;19.47;13.70;;;;;;;;;;521981;28;1144;-79
2022/03/09 00:11:06;;;;;;;18.63;13.60;;;;;;;;;;522041;28;923;-79
2022/03/09 00:11:22;;;;;;;18.95;13.73;;;;;;;;;;521618;28;992;-79
2022/03/09 00:11:37;;;;;;;21.30;14.37;;;;;;;;;;521542;28;872;-79
2022/03/09 00:11:53;;;;;;;23.95;15.60;;;;;;;;;;521883;28;819;-79
2022/03/09 00:12:09;;;;;;;27.43;16.90;;;;;;;;;;521412;28;930;-79
2022/03/09 00:12:25;;;;;;;27.42;16.52;;;;;;;;;;521823;28;803;-79
2022/03/09 00:12:40;;;;;;;24.88;15.30;;;;;;;;;;522141;28;825;-79
2022/03/09 00:12:55;;;;;;;24.40;15.27;;;;;;;;;;522031;28;1119;-79
2022/03/09 00:13:10;;;;;;;24.30;15.57;;;;;;;;;;522207;28;757;-79
2022/03/09 00:13:26;;;;;;;24.52;15.60;;;;;;;;;;522141;28;934;-79
2022/03/09 00:13:41;;;;;;;24.00;15.80;;;;;;;;;;519876;28;1253;-79
2022/03/09 00:13:56;;;;;;;25.43;16.00;;;;;;;;;;517915;28;1397;-79
2022/03/09 00:14:11;;;;;;;27.40;16.33;;;;;;;;;;517696;28;729;-79
2022/03/09 00:14:27;;;;;;;27.37;16.23;;;;;;;;;;518003;28;966;-79
2022/03/09 00:14:42;;;;;;;24.67;15.40;;;;;;;;;;517647;28;1181;-79
2022/03/09 00:14:57;;;;;;;23.53;15.40;;;;;;;;;;520038;28;935;-79
2022/03/09 00:15:13;;;;;;;25.05;15.65;;;;;;;;;;519897;28;895;-79
2022/03/09 00:15:28;;;;;;;22.67;15.17;;;;;;;;;;517976;28;1319;-79
2022/03/09 00:15:43;;;;;;;21.30;14.68;;;;;;;;;;520160;28;1049;-79
2022/03/09 00:15:58;;;;;;;23.60;15.40;;;;;;;;;;519901;28;1307;-79
2022/03/09 00:16:14;;;;;;;24.43;15.73;;;;;;;;;;517605;28;1185;-80
2022/03/09 00:16:29;;;;;;;24.63;15.40;;;;;;;;;;517936;28;788;-79
2022/03/09 00:16:45;;;;;;;22.67;15.30;;;;;;;;;;518058;28;1320;-80
2022/03/09 00:17:00;;;;;;;20.87;15.13;;;;;;;;;;517666;28;1392;-79
2022/03/09 00:17:15;;;;;;;22.70;15.20;;;;;;;;;;518179;28;904;-79
2022/03/09 00:17:31;;;;;;;24.17;14.87;;;;;;;;;;519766;28;825;-79
2022/03/09 00:17:46;;;;;;;24.03;14.60;;;;;;;;;;517895;28;1172;-79
2022/03/09 00:18:01;;;;;;;21.08;14.23;;;;;;;;;;519812;28;701;-79
2022/03/09 00:18:16;;;;;;;21.13;14.53;;;;;;;;;;519615;28;1011;-79
2022/03/09 00:18:32;;;;;;;25.40;15.93;;;;;;;;;;517727;28;1285;-79
2022/03/09 00:18:47;;;;;;;23.60;15.40;;;;;;;;;;518177;28;860;-79
2022/03/09 00:19:02;;;;;;;21.67;14.57;;;;;;;;;;520090;28;846;-79
2022/03/09 00:19:18;;;;;;;25.27;15.67;;;;;;;;;;520019;28;788;-79
2022/03/09 00:19:33;;;;;;;28.30;16.63;;;;;;;;;;520091;28;840;-79
2022/03/09 00:19:48;;;;;;;28.60;17.27;;;;;;;;;;521045;28;1349;-79
2022/03/09 00:20:06;;;;;;;27.33;17.37;;;;;;;;;;521948;28;979;-79
2022/03/09 00:20:21;;;;;;;32.92;18.77;;;;;;;;;;522078;28;780;-79
2022/03/09 00:20:36;;;;;;;33.47;19.37;;;;;;;;;;521670;28;1917;-79
2022/03/09 00:20:52;;;;;;;29.63;18.13;;;;;;;;;;521941;28;930;-79
2022/03/09 00:21:08;;;;;;;29.97;17.20;;;;;;;;;;521902;28;717;-79
2022/03/09 00:21:23;;;;;;;27.95;16.67;;;;;;;;;;521527;28;752;-79
2022/03/09 00:21:38;;;;;;;23.77;15.23;;;;;;;;;;520209;28;1148;-79
2022/03/09 00:21:54;;;;;;;23.67;15.02;;;;;;;;;;519836;28;1508;-79
2022/03/09 00:22:09;;;;;;;25.10;15.57;;;;;;;;;;519844;28;780;-79
2022/03/09 00:22:24;;;;;;;25.13;15.50;;;;;;;;;;519858;28;788;-79
2022/03/09 00:22:39;;;;;;;26.37;15.90;;;;;;;;;;519710;28;1279;-79
2022/03/09 00:22:55;;;;;;;28.35;16.38;;;;;;;;;;517798;28;1287;-79
2022/03/09 00:23:10;;;;;;;27.40;16.50;;;;;;;;;;518050;28;896;-79
2022/03/09 00:23:25;;;;;;;24.97;15.97;;;;;;;;;;518144;28;825;-79
2022/03/09 00:23:41;;;;;;;24.02;15.48;;;;;;;;;;519781;28;970;-79
2022/03/09 00:23:56;;;;;;;24.57;15.97;;;;;;;;;;519814;28;769;-79
2022/03/09 00:24:11;;;;;;;25.37;16.20;;;;;;;;;;519909;28;1611;-79
2022/03/09 00:24:26;;;;;;;24.77;15.98;;;;;;;;;;521923;28;878;-79
2022/03/09 00:24:42;;;;;;;25.17;16.07;;;;;;;;;;521140;28;1290;-80
2022/03/09 00:24:58;;;;;;;25.55;15.63;;;;;;;;;;522038;28;964;-79
2022/03/09 00:25:13;;;;;;;26.07;16.13;;;;;;;;;;521956;28;915;-80
2022/03/09 00:25:28;;;;;;;28.40;17.40;;;;;;;;;;522123;28;848;-79
2022/03/09 00:25:43;;;;;;;30.05;17.60;;;;;;;;;;522070;28;943;-80
2022/03/09 00:25:59;;;;;;;32.00;17.90;;;;;;;;;;522360;28;803;-79
2022/03/09 00:26:14;;;;;;;33.13;18.80;;;;;;;;;;524140;28;973;-79
2022/03/09 00:26:29;;;;;;;31.25;18.60;;;;;;;;;;522011;28;1429;-80
2022/03/09 00:26:45;;;;;;;30.27;17.53;;;;;;;;;;523768;28;823;-79
2022/03/09 00:27:01;;;;;;;28.23;16.70;;;;;;;;;;524145;28;935;-80
2022/03/09 00:27:16;;;;;;;26.17;16.47;;;;;;;;;;523940;28;784;-79
2022/03/09 00:27:31;;;;;;;23.17;15.55;;;;;;;;;;523846;28;1005;-80
2022/03/09 00:27:46;;;;;;;19.80;14.93;;;;;;;;;;523875;28;824;-80
2022/03/09 00:28:02;;;;;;;18.97;14.87;;;;;;;;;;523911;28;752;-79
2022/03/09 00:28:17;;;;;;;20.77;14.82;;;;;;;;;;524105;28;776;-79
2022/03/09 00:28:33;;;;;;;22.90;15.30;;;;;;;;;;524363;28;851;-79
2022/03/09 00:28:48;;;;;;;21.17;14.93;;;;;;;;;;523779;28;874;-79
2022/03/09 00:29:04;;;;;;;19.43;14.27;;;;;;;;;;524323;28;819;-79
2022/03/09 00:29:19;;;;;;;19.88;14.15;;;;;;;;;;524348;28;744;-80
2022/03/09 00:29:35;;;;;;;20.17;14.23;;;;;;;;;;523118;28;1294;-80
2022/03/09 00:29:50;;;;;;;19.98;14.05;;;;;;;;;;520575;28;1513;-80
2022/03/09 00:30:06;;;;;;;20.37;13.80;;;;;;;;;;521364;28;1374;-80
2022/03/09 00:30:21;;;;;;;18.42;13.70;;;;;;;;;;519848;28;1333;-79
2022/03/09 00:30:37;;;;;;;16.70;13.37;;;;;;;;;;518480;28;1137;-79
2022/03/09 00:30:52;;;;;;;17.15;13.60;;;;;;;;;;519644;28;990;-80
2022/03/09 00:31:07;;;;;;;17.53;13.53;;;;;;;;;;519791;28;1417;-79
2022/03/09 00:31:22;;;;;;;17.33;13.20;;;;;;;;;;519984;28;749;-79
2022/03/09 00:31:38;;;;;;;17.58;13.52;;;;;;;;;;522208;28;1063;-79
2022/03/09 00:31:53;;;;;;;18.63;13.77;;;;;;;;;;521933;28;1413;-80
2022/03/09 00:32:09;;;;;;;19.20;13.70;;;;;;;;;;521782;28;1151;-80
2022/03/09 00:32:24;;;;;;;17.98;13.50;;;;;;;;;;521985;28;745;-79
2022/03/09 00:32:40;;;;;;;17.47;13.43;;;;;;;;;;521852;28;1322;-79
2022/03/09 00:32:55;;;;;;;17.30;13.02;;;;;;;;;;519397;28;1215;-79
2022/03/09 00:33:11;;;;;;;17.57;12.50;;;;;;;;;;519903;28;818;-80
2022/03/09 00:33:26;;;;;;;17.30;12.57;;;;;;;;;;517735;28;1174;-80
2022/03/09 00:33:41;;;;;;;16.10;12.70;;;;;;;;;;517865;28;793;-80
2022/03/09 00:33:57;;;;;;;15.85;12.57;;;;;;;;;;516014;28;1185;-79
2022/03/09 00:34:12;;;;;;;14.80;12.30;;;;;;;;;;515945;28;1146;-81
2022/03/09 00:34:27;;;;;;;14.67;11.90;;;;;;;;;;516193;28;757;-80
2022/03/09 00:34:43;;;;;;;15.10;12.02;;;;;;;;;;517768;28;793;-80
2022/03/09 00:34:58;;;;;;;14.20;11.90;;;;;;;;;;519592;28;899;-80
2022/03/09 00:35:14;;;;;;;13.52;11.48;;;;;;;;;;517906;28;1203;-80
2022/03/09 00:35:29;;;;;;;14.90;11.93;;;;;;;;;;519988;28;737;-80
2022/03/09 00:35:44;;;;;;;15.35;12.23;;;;;;;;;;518313;28;1379;-80
2022/03/09 00:36:00;;;;;;;14.07;12.03;;;;;;;;;;520061;28;927;-81
2022/03/09 00:36:16;;;;;;;14.80;12.00;;;;;;;;;;521793;28;1025;-81
2022/03/09 00:36:31;;;;;;;14.77;11.67;;;;;;;;;;521951;28;804;-80
2022/03/09 00:36:46;;;;;;;14.07;11.68;;;;;;;;;;521977;28;852;-80
2022/03/09 00:37:02;;;;;;;14.00;11.77;;;;;;;;;;522115;28;783;-81
2022/03/09 00:37:17;;;;;;;13.95;11.57;;;;;;;;;;521836;28;1150;-81
2022/03/09 00:37:32;;;;;;;14.17;11.57;;;;;;;;;;521841;28;1324;-80
2022/03/09 00:37:48;;;;;;;14.30;11.67;;;;;;;;;;521976;28;729;-80
2022/03/09 00:38:03;;;;;;;14.15;11.85;;;;;;;;;;521948;28;828;-80
2022/03/09 00:38:18;;;;;;;14.27;11.53;;;;;;;;;;521972;28;751;-80
2022/03/09 00:38:34;;;;;;;13.63;11.20;;;;;;;;;;521688;28;1312;-80
2022/03/09 00:38:49;;;;;;;13.23;11.13;;;;;;;;;;519730;28;1146;-81
2022/03/09 00:39:05;;;;;;;13.97;11.13;;;;;;;;;;519867;28;1257;-80
2022/03/09 00:39:20;;;;;;;14.45;11.65;;;;;;;;;;521663;28;859;-80
2022/03/09 00:39:35;;;;;;;14.77;12.20;;;;;;;;;;521487;28;773;-81
2022/03/09 00:39:51;;;;;;;14.20;12.00;;;;;;;;;;521868;28;752;-81
2022/03/09 00:40:07;;;;;;;14.20;12.07;;;;;;;;;;521928;28;875;-80
2022/03/09 00:40:22;;;;;;;14.93;12.05;;;;;;;;;;522070;28;843;-80
2022/03/09 00:40:38;;;;;;;15.43;12.13;;;;;;;;;;521506;28;1967;-81
2022/03/09 00:40:54;;;;;;;15.20;11.93;;;;;;;;;;522408;28;918;-80
2022/03/09 00:41:09;;;;;;;16.58;11.80;;;;;;;;;;523799;28;852;-80
2022/03/09 00:41:24;;;;;;;16.90;12.10;;;;;;;;;;523453;28;733;-81
2022/03/09 00:41:39;;;;;;;13.80;11.60;;;;;;;;;;523808;28;911;-81
2022/03/09 00:41:55;;;;;;;12.68;11.20;;;;;;;;;;523925;28;1075;-81
2022/03/09 00:42:10;;;;;;;14.37;11.67;;;;;;;;;;523927;28;773;-81
2022/03/09 00:42:26;;;;;;;14.67;11.83;;;;;;;;;;523750;28;907;-81
2022/03/09 00:42:41;;;;;;;13.73;11.48;;;;;;;;;;523807;28;891;-80
2022/03/09 00:42:56;;;;;;;15.13;11.80;;;;;;;;;;521855;28;1267;-80
2022/03/09 00:43:12;;;;;;;15.55;11.98;;;;;;;;;;522022;28;867;-80
2022/03/09 00:43:28;;;;;;;14.83;12.00;;;;;;;;;;521587;28;1278;-80
2022/03/09 00:43:44;;;;;;;13.70;11.80;;;;;;;;;;521690;28;1380;-80
2022/03/09 00:43:59;;;;;;;13.17;11.67;;;;;;;;;;521138;28;1681;-80
2022/03/09 00:44:15;;;;;;;13.00;11.53;;;;;;;;;;520074;28;943;-81
2022/03/09 00:44:31;;;;;;;14.25;11.90;;;;;;;;;;522333;28;2086;-81
2022/03/09 00:44:46;;;;;;;15.83;12.57;;;;;;;;;;523608;28;839;-80
2022/03/09 00:45:02;;;;;;;16.03;12.73;;;;;;;;;;523988;28;938;-81
2022/03/09 00:45:17;;;;;;;16.20;12.70;;;;;;;;;;523744;28;875;-80
2022/03/09 00:45:32;;;;;;;15.87;12.60;;;;;;;;;;523595;28;843;-80
2022/03/09 00:45:48;;;;;;;16.25;12.40;;;;;;;;;;523908;28;903;-81
2022/03/09 00:46:04;;;;;;;16.00;12.45;;;;;;;;;;523827;28;855;-81
2022/03/09 00:46:19;;;;;;;15.23;12.27;;;;;;;;;;524105;28;764;-81
2022/03/09 00:46:35;;;;;;;14.33;11.80;;;;;;;;;;524247;28;996;-81
2022/03/09 00:46:50;;;;;;;14.43;11.70;;;;;;;;;;523920;28;1183;-80
2022/03/09 00:47:05;;;;;;;15.03;11.70;;;;;;;;;;523994;28;855;-80
2022/03/09 00:47:20;;;;;;;14.30;11.57;;;;;;;;;;521927;28;1174;-80
2022/03/09 00:47:36;;;;;;;14.87;11.50;;;;;;;;;;521365;28;1519;-80
2022/03/09 00:47:52;;;;;;;14.70;11.40;;;;;;;;;;521936;28;748;-81
2022/03/09 00:48:07;;;;;;;13.30;11.33;;;;;;;;;;519870;28;1172;-81
2022/03/09 00:48:23;;;;;;;13.68;11.85;;;;;;;;;;517753;28;1304;-81
2022/03/09 00:48:39;;;;;;;14.75;12.30;;;;;;;;;;517842;28;1279;-80
2022/03/09 00:48:55;;;;;;;15.43;12.25;;;;;;;;;;519709;28;1224;-81
2022/03/09 00:49:10;;;;;;;14.30;11.95;;;;;;;;;;517811;28;1294;-80
2022/03/09 00:49:25;;;;;;;14.43;12.10;;;;;;;;;;516218;28;1242;-80
2022/03/09 00:49:41;;;;;;;15.27;12.10;;;;;;;;;;516950;28;1272;-81
2022/03/09 00:49:56;;;;;;;15.30;11.90;;;;;;;;;;517952;28;888;-80
2022/03/09 00:50:11;;;;;;;15.27;11.87;;;;;;;;;;518179;28;828;-80
2022/03/09 00:50:27;;;;;;;14.47;11.97;;;;;;;;;;520470;28;828;-80
2022/03/09 00:50:42;;;;;;;14.82;12.27;;;;;;;;;;522137;28;839;-81
2022/03/09 00:50:57;;;;;;;14.53;11.90;;;;;;;;;;522034;28;832;-80
2022/03/09 00:51:12;;;;;;;14.27;11.63;;;;;;;;;;522074;28;887;-81
2022/03/09 00:51:28;;;;;;;14.80;12.30;;;;;;;;;;524024;28;816;-81
2022/03/09 00:51:43;;;;;;;14.60;12.15;;;;;;;;;;523844;28;752;-78
2022/03/09 00:51:58;;;;;;;14.10;11.70;;;;;;;;;;524151;28;733;-78
2022/03/09 00:52:13;;;;;;;14.33;11.97;;;;;;;;;;524256;28;812;-78
2022/03/09 00:52:30;;;;;;;14.45;12.30;;;;;;;;;;524166;28;918;-78
2022/03/09 00:52:47;;;;;;;14.68;12.13;;;;;;;;;;523960;28;1273;-78
2022/03/09 00:53:02;;;;;;;16.25;11.95;;;;;;;;;;524143;28;839;-78
2022/03/09 00:53:17;;;;;;;16.10;12.03;;;;;;;;;;523958;28;807;-78
2022/03/09 00:53:33;;;;;;;15.53;12.33;;;;;;;;;;521783;28;1175;-78
2022/03/09 00:53:48;;;;;;;15.60;12.40;;;;;;;;;;519337;28;1192;-78
2022/03/09 00:54:04;;;;;;;14.38;11.80;;;;;;;;;;519787;28;757;-81
2022/03/09 00:54:19;;;;;;;14.43;11.73;;;;;;;;;;519864;28;749;-80
2022/03/09 00:54:34;;;;;;;15.00;12.03;;;;;;;;;;520032;28;752;-80
2022/03/09 00:54:50;;;;;;;14.73;12.38;;;;;;;;;;521662;28;1046;-80
2022/03/09 00:55:09;;;;;;;14.93;12.37;;;;;;;;;;521921;28;745;-80
2022/03/09 00:55:24;;;;;;;15.27;12.57;;;;;;;;;;521605;28;1131;-80
2022/03/09 00:55:39;;;;;;;14.90;12.43;;;;;;;;;;522171;28;1189;-80
2022/03/09 00:55:55;;;;;;;15.60;12.10;;;;;;;;;;521687;28;961;-80
2022/03/09 00:56:10;;;;;;;15.43;11.87;;;;;;;;;;522152;28;911;-81
2022/03/09 00:56:25;;;;;;;14.43;11.80;;;;;;;;;;522088;28;1155;-80
2022/03/09 00:56:40;;;;;;;14.53;12.00;;;;;;;;;;519602;28;1433;-80
2022/03/09 00:56:56;;;;;;;14.23;11.87;;;;;;;;;;520020;28;836;-80
2022/03/09 00:57:11;;;;;;;14.77;12.40;;;;;;;;;;519875;28;788;-80
2022/03/09 00:57:26;;;;;;;15.20;12.80;;;;;;;;;;519864;28;745;-81
2022/03/09 00:57:42;;;;;;;16.33;12.50;;;;;;;;;;519827;28;1387;-80
2022/03/09 00:57:57;;;;;;;16.63;12.47;;;;;;;;;;517528;28;1233;-80
2022/03/09 00:58:12;;;;;;;16.60;13.10;;;;;;;;;;518201;28;983;-81
2022/03/09 00:58:28;;;;;;;15.67;12.80;;;;;;;;;;520045;28;830;-80
2022/03/09 00:58:43;;;;;;;15.65;12.38;;;;;;;;;;517853;28;1187;-80
2022/03/09 00:58:58;;;;;;;16.57;12.53;;;;;;;;;;517894;28;1264;-78
2022/03/09 00:59:14;;;;;;;16.30;12.33;;;;;;;;;;518209;28;923;-80
2022/03/09 00:59:29;;;;;;;15.48;12.13;;;;;;;;;;518253;28;878;-79
2022/03/09 00:59:44;;;;;;;14.47;12.07;;;;;;;;;;517923;28;1420;-78
2022/03/09 00:59:59;;;;;;;15.17;12.10;;;;;;;;;;520324;28;1347;-78
2022/03/09 01:00:15;;;;;;;15.03;12.30;;;;;;;;;;521877;28;1446;-79
2022/03/09 01:00:30;;;;;;;15.45;12.15;;;;;;;;;;519655;28;784;-80
2022/03/09 01:00:46;;;;;;;16.67;12.07;;;;;;;;;;520100;28;1913;-81
2022/03/09 01:01:01;;;;;;;16.30;12.35;;;;;;;;;;522341;28;852;-80
2022/03/09 01:01:17;;;;;;;16.23;12.50;;;;;;;;;;521999;28;753;-80
2022/03/09 01:01:32;;;;;;;16.10;12.68;;;;;;;;;;524007;28;1195;-80
2022/03/09 01:01:47;;;;;;;15.57;12.37;;;;;;;;;;524397;28;1504;-80
2022/03/09 01:02:03;;;;;;;16.10;12.03;;;;;;;;;;524206;28;1379;-80
2022/03/09 01:02:18;;;;;;;16.88;12.25;;;;;;;;;;524328;28;831;-80
2022/03/09 01:02:40;;;;;;;16.23;12.13;;;;;;;;;;522289;28;1218;-80
2022/03/09 01:02:55;;;;;;;16.20;12.35;;;;;;;;;;524361;28;1009;-80
2022/03/09 01:03:10;;;;;;;20.53;13.30;;;;;;;;;;524406;28;796;-80
2022/03/09 01:03:26;;;;;;;27.15;14.98;;;;;;;;;;524340;28;745;-80
2022/03/09 01:03:42;;;;;;;28.67;15.63;;;;;;;;;;522403;28;1311;-80
2022/03/09 01:03:57;;;;;;;25.75;15.05;;;;;;;;;;522412;28;1266;-80
2022/03/09 01:04:13;;;;;;;22.27;14.07;;;;;;;;;;522107;28;835;-80
2022/03/09 01:04:28;;;;;;;21.13;13.97;;;;;;;;;;521353;28;1326;-80
2022/03/09 01:04:44;;;;;;;20.00;14.20;;;;;;;;;;521879;28;1533;-80
2022/03/09 01:04:59;;;;;;;19.40;14.27;;;;;;;;;;522217;28;958;-81
2022/03/09 01:05:15;;;;;;;21.20;14.32;;;;;;;;;;522271;28;1316;-80
2022/03/09 01:05:30;;;;;;;22.33;14.27;;;;;;;;;;522471;28;749;-80
2022/03/09 01:05:46;;;;;;;22.35;14.38;;;;;;;;;;522689;28;926;-80
2022/03/09 01:06:01;;;;;;;21.27;14.30;;;;;;;;;;522199;28;1432;-80
2022/03/09 01:06:17;;;;;;;20.58;14.40;;;;;;;;;;519818;28;1373;-80
2022/03/09 01:06:32;;;;;;;20.70;14.10;;;;;;;;;;518152;28;1152;-79
2022/03/09 01:06:48;;;;;;;20.50;13.70;;;;;;;;;;518105;28;753;-80
2022/03/09 01:07:04;;;;;;;19.80;13.57;;;;;;;;;;518484;28;683;-80
2022/03/09 01:07:19;;;;;;;21.30;14.07;;;;;;;;;;520248;28;852;-80
2022/03/09 01:07:35;;;;;;;20.57;14.13;;;;;;;;;;517806;28;1116;-80
2022/03/09 01:07:50;;;;;;;18.47;13.83;;;;;;;;;;518577;28;958;-80
2022/03/09 01:08:05;;;;;;;20.48;14.55;;;;;;;;;;518681;28;1237;-80
2022/03/09 01:08:21;;;;;;;21.80;14.30;;;;;;;;;;520282;28;828;-80
2022/03/09 01:08:36;;;;;;;19.90;13.13;;;;;;;;;;522388;28;812;-80
2022/03/09 01:08:51;;;;;;;19.30;13.07;;;;;;;;;;522536;28;824;-80
2022/03/09 01:09:07;;;;;;;21.57;13.50;;;;;;;;;;520349;28;1245;-80
2022/03/09 01:09:22;;;;;;;20.45;13.70;;;;;;;;;;520663;28;816;-80
2022/03/09 01:09:37;;;;;;;17.30;13.40;;;;;;;;;;521749;28;1347;-80
2022/03/09 01:09:52;;;;;;;18.90;13.50;;;;;;;;;;522461;28;1002;-80
2022/03/09 01:10:09;;;;;;;19.70;13.60;;;;;;;;;;520194;28;1450;-80
2022/03/09 01:10:24;;;;;;;19.00;13.50;;;;;;;;;;517975;28;1434;-80
2022/03/09 01:10:39;;;;;;;17.60;13.17;;;;;;;;;;519907;28;1097;-80
2022/03/09 01:10:55;;;;;;;16.63;13.37;;;;;;;;;;520278;28;721;-80
2022/03/09 01:11:10;;;;;;;18.38;13.75;;;;;;;;;;520173;28;1164;-80
2022/03/09 01:11:25;;;;;;;18.30;13.20;;;;;;;;;;519962;28;725;-80
2022/03/09 01:11:41;;;;;;;16.42;12.80;;;;;;;;;;519884;28;1336;-80
2022/03/09 01:11:57;;;;;;;15.60;12.60;;;;;;;;;;520593;28;1483;-80
2022/03/09 01:12:12;;;;;;;16.05;12.23;;;;;;;;;;520513;28;1435;-80
2022/03/09 01:12:27;;;;;;;15.53;12.37;;;;;;;;;;522113;28;1347;-80
2022/03/09 01:12:43;;;;;;;14.77;12.50;;;;;;;;;;522234;28;701;-80
2022/03/09 01:12:58;;;;;;;14.77;12.40;;;;;;;;;;520511;28;1280;-80
2022/03/09 01:13:13;;;;;;;15.50;12.33;;;;;;;;;;522389;28;926;-79
2022/03/09 01:13:29;;;;;;;16.25;12.55;;;;;;;;;;520130;28;1324;-79
2022/03/09 01:13:44;;;;;;;16.57;12.73;;;;;;;;;;519759;28;1244;-80
2022/03/09 01:13:59;;;;;;;15.77;12.33;;;;;;;;;;520092;28;1132;-80
2022/03/09 01:14:14;;;;;;;15.18;12.10;;;;;;;;;;522005;28;1139;-79
2022/03/09 01:14:30;;;;;;;15.63;12.10;;;;;;;;;;520167;28;832;-79
2022/03/09 01:14:45;;;;;;;15.07;12.20;;;;;;;;;;519828;28;844;-80
2022/03/09 01:15:01;;;;;;;15.13;12.10;;;;;;;;;;522476;28;796;-80
2022/03/09 01:15:17;;;;;;;15.30;12.07;;;;;;;;;;520213;28;1164;-79
2022/03/09 01:15:32;;;;;;;15.93;12.20;;;;;;;;;;520784;28;955;-79
2022/03/09 01:15:49;;;;;;;16.58;12.48;;;;;;;;;;522411;28;760;-80
2022/03/09 01:16:05;;;;;;;15.07;12.40;;;;;;;;;;520257;28;1454;-79
2022/03/09 01:16:20;;;;;;;16.35;12.52;;;;;;;;;;520276;28;935;-79
2022/03/09 01:16:36;;;;;;;17.20;12.95;;;;;;;;;;520088;28;804;-79
2022/03/09 01:16:51;;;;;;;15.93;12.80;;;;;;;;;;520043;28;852;-80
2022/03/09 01:17:06;;;;;;;15.98;12.90;;;;;;;;;;518749;28;1424;-80
2022/03/09 01:17:21;;;;;;;15.97;12.73;;;;;;;;;;520250;28;728;-79
2022/03/09 01:17:37;;;;;;;15.47;12.50;;;;;;;;;;520297;28;728;-79
2022/03/09 01:17:52;;;;;;;14.75;12.40;;;;;;;;;;520609;28;1312;-79
2022/03/09 01:18:07;;;;;;;14.57;12.20;;;;;;;;;;522359;28;839;-79
2022/03/09 01:18:23;;;;;;;15.27;12.30;;;;;;;;;;522450;28;886;-79
2022/03/09 01:18:38;;;;;;;16.83;12.43;;;;;;;;;;522407;28;764;-80
2022/03/09 01:18:54;;;;;;;17.20;12.60;;;;;;;;;;522524;28;1003;-80
2022/03/09 01:19:09;;;;;;;16.08;12.50;;;;;;;;;;524426;28;914;-79
2022/03/09 01:19:24;;;;;;;16.80;12.50;;;;;;;;;;524378;28;1340;-79
2022/03/09 01:19:40;;;;;;;17.10;12.00;;;;;;;;;;522024;28;1124;-79
2022/03/09 01:19:55;;;;;;;16.25;11.82;;;;;;;;;;524183;28;981;-80
2022/03/09 01:20:10;;;;;;;15.50;12.20;;;;;;;;;;524030;28;953;-80
2022/03/09 01:20:26;;;;;;;15.43;12.18;;;;;;;;;;524247;28;826;-79
2022/03/09 01:20:41;;;;;;;15.37;12.60;;;;;;;;;;524166;28;1906;-80
2022/03/09 01:20:57;;;;;;;16.13;12.63;;;;;;;;;;524040;28;843;-79
2022/03/09 01:21:12;;;;;;;15.48;11.98;;;;;;;;;;524631;28;819;-79
2022/03/09 01:21:27;;;;;;;15.50;12.17;;;;;;;;;;526140;28;958;-79
2022/03/09 01:21:43;;;;;;;15.40;12.68;;;;;;;;;;526231;28;798;-79
2022/03/09 01:21:58;;;;;;;14.80;12.40;;;;;;;;;;526355;28;993;-79
2022/03/09 01:22:13;;;;;;;14.73;12.07;;;;;;;;;;526350;28;1004;-79
2022/03/09 01:22:28;;;;;;;14.63;12.00;;;;;;;;;;526607;28;874;-79
2022/03/09 01:22:44;;;;;;;14.95;12.25;;;;;;;;;;526375;28;795;-80
2022/03/09 01:22:59;;;;;;;15.10;12.57;;;;;;;;;;526163;28;760;-80
2022/03/09 01:23:15;;;;;;;17.25;12.85;;;;;;;;;;524113;28;1358;-79
2022/03/09 01:23:30;;;;;;;21.23;13.60;;;;;;;;;;522162;28;1291;-79
2022/03/09 01:23:45;;;;;;;22.50;13.87;;;;;;;;;;522120;28;1264;-80
2022/03/09 01:24:01;;;;;;;19.55;13.35;;;;;;;;;;522107;28;795;-80
2022/03/09 01:24:17;;;;;;;20.05;13.82;;;;;;;;;;521687;28;1501;-79
2022/03/09 01:24:32;;;;;;;24.67;15.23;;;;;;;;;;521048;28;1791;-80
2022/03/09 01:24:47;;;;;;;30.50;16.70;;;;;;;;;;521205;28;1456;-79
2022/03/09 01:25:03;;;;;;;32.40;17.00;;;;;;;;;;518218;28;1161;-79
2022/03/09 01:25:18;;;;;;;28.45;16.27;;;;;;;;;;518009;28;828;-79
2022/03/09 01:25:34;;;;;;;30.00;17.97;;;;;;;;;;518223;28;739;-79
2022/03/09 01:25:51;;;;;;;37.78;23.27;;;;;;;;;;518040;28;1295;-79
2022/03/09 01:26:07;;;;;;;44.47;26.60;;;;;;;;;;518595;28;807;-79
2022/03/09 01:26:22;;;;;;;42.47;26.13;;;;;;;;;;520167;28;733;-79
2022/03/09 01:26:37;;;;;;;39.50;25.07;;;;;;;;;;520199;28;995;-80
2022/03/09 01:26:53;;;;;;;36.77;23.27;;;;;;;;;;520588;28;759;-79
2022/03/09 01:27:08;;;;;;;33.33;21.80;;;;;;;;;;522074;28;817;-80
2022/03/09 01:27:23;;;;;;;30.17;20.35;;;;;;;;;;522223;28;587;-80
2022/03/09 01:27:38;;;;;;;26.13;18.00;;;;;;;;;;522693;28;843;-79
2022/03/09 01:27:54;;;;;;;23.23;15.70;;;;;;;;;;524520;28;720;-79
2022/03/09 01:28:09;;;;;;;25.20;16.50;;;;;;;;;;524456;28;973;-80
2022/03/09 01:28:24;;;;;;;26.43;17.23;;;;;;;;;;522383;28;839;-79
2022/03/09 01:28:40;;;;;;;23.63;15.87;;;;;;;;;;522434;28;792;-79
2022/03/09 01:28:55;;;;;;;21.17;15.68;;;;;;;;;;522511;28;870;-79
2022/03/09 01:29:11;;;;;;;23.30;16.23;;;;;;;;;;519825;28;1438;-79
2022/03/09 01:29:26;;;;;;;25.33;16.10;;;;;;;;;;520275;28;764;-79
2022/03/09 01:29:41;;;;;;;24.63;16.53;;;;;;;;;;519853;28;1184;-80
2022/03/09 01:29:57;;;;;;;24.33;17.20;;;;;;;;;;520100;28;828;-80
2022/03/09 01:30:12;;;;;;;24.77;16.92;;;;;;;;;;520039;28;1082;-80
2022/03/09 01:30:27;;;;;;;25.67;16.40;;;;;;;;;;522042;28;1155;-80
2022/03/09 01:30:43;;;;;;;27.90;16.50;;;;;;;;;;521716;28;1472;-80
2022/03/09 01:30:58;;;;;;;26.30;15.77;;;;;;;;;;522484;28;804;-80
2022/03/09 01:31:13;;;;;;;21.90;14.83;;;;;;;;;;523870;28;771;-79
2022/03/09 01:31:28;;;;;;;18.20;13.63;;;;;;;;;;524077;28;752;-79
2022/03/09 01:31:44;;;;;;;16.67;12.80;;;;;;;;;;521494;28;1434;-79
2022/03/09 01:31:59;;;;;;;19.37;13.23;;;;;;;;;;522135;28;772;-80
2022/03/09 01:32:14;;;;;;;20.53;13.83;;;;;;;;;;519826;28;1221;-80
2022/03/09 01:32:30;;;;;;;19.17;13.75;;;;;;;;;;518378;28;819;-80
2022/03/09 01:32:45;;;;;;;21.03;13.97;;;;;;;;;;522009;28;1267;-80
2022/03/09 01:33:00;;;;;;;23.47;14.70;;;;;;;;;;520079;28;1254;-80
2022/03/09 01:33:16;;;;;;;22.88;14.70;;;;;;;;;;520068;28;931;-80